Time;durP1;ratioP1;P1;durP2;ratioP2;P2;SDS_P1;SDS_P2;PMS_P1;PMS_P2;Temp;Humidity;BMP_temperature;BMP_pressure;BME280_temperature;BME280_humidity;BME280_pressure;Samples;Min_cycle;Max_cycle;Signal;HPM_P1;HPM_P2
2022/07/02 00:02:49;;;;;;;19.53;13.07;;;;;;;;;;7746257;23;20020;-51
2022/07/02 00:05:57;;;;;;;23.88;15.82;;;;;;;;;;7747124;23;20019;-55
2022/07/02 00:08:59;;;;;;;21.05;14.65;;;;;;;;;;7746925;23;20024;-55
2022/07/02 00:12:01;;;;;;;20.88;14.40;;;;;;;;;;7746402;23;20073;-48
2022/07/02 00:15:02;;;;;;;23.25;15.57;;;;;;;;;;7745730;23;20458;-51
2022/07/02 00:18:03;;;;;;;22.27;14.87;;;;;;;;;;7745900;23;20046;-55
2022/07/02 00:21:04;;;;;;;21.90;13.97;;;;;;;;;;7746142;23;20253;-50
2022/07/02 00:24:07;;;;;;;23.33;14.15;;;;;;;;;;7747021;23;20070;-48
2022/07/02 00:27:16;;;;;;;22.90;15.48;;;;;;;;;;7746391;23;20459;-48
2022/07/02 00:30:17;;;;;;;25.08;15.70;;;;;;;;;;7745292;23;20020;-48
2022/07/02 00:33:18;;;;;;;23.47;15.60;;;;;;;;;;7744367;23;20020;-49
2022/07/02 00:36:22;;;;;;;21.63;14.73;;;;;;;;;;7742218;23;20020;-48
2022/07/02 00:39:22;;;;;;;23.42;16.45;;;;;;;;;;7738599;23;20020;-48
2022/07/02 00:42:24;;;;;;;22.30;14.30;;;;;;;;;;7742587;23;20066;-48
2022/07/02 00:45:26;;;;;;;23.02;14.48;;;;;;;;;;7742471;23;20085;-50
2022/07/02 00:48:27;;;;;;;22.92;15.07;;;;;;;;;;7743521;23;20028;-52
2022/07/02 00:51:28;;;;;;;20.03;14.23;;;;;;;;;;7740509;23;20102;-49
2022/07/02 00:54:29;;;;;;;18.63;12.83;;;;;;;;;;7745170;23;20550;-48
2022/07/02 00:57:33;;;;;;;20.75;12.40;;;;;;;;;;7743881;23;20016;-53
2022/07/02 01:00:36;;;;;;;16.67;11.52;;;;;;;;;;7742553;23;20071;-55
2022/07/02 01:03:38;;;;;;;15.40;10.80;;;;;;;;;;7744855;23;20021;-59
2022/07/02 01:06:39;;;;;;;17.02;9.88;;;;;;;;;;7745246;23;20797;-48
2022/07/02 01:13:01;;;;;;;;;;;;;;;;;;7746924;23;20024;-50
2022/07/02 01:16:02;;;;;;;13.88;9.73;;;;;;;;;;7746279;23;19919;-48
2022/07/02 01:19:04;;;;;;;15.27;10.10;;;;;;;;;;7746107;23;20035;-55
2022/07/02 01:22:11;;;;;;;15.73;9.48;;;;;;;;;;7743964;23;20016;-54
2022/07/02 01:25:12;;;;;;;13.38;9.20;;;;;;;;;;7744716;23;20023;-58
2022/07/02 01:28:12;;;;;;;13.80;9.87;;;;;;;;;;7744214;23;20028;-55
2022/07/02 01:31:13;;;;;;;14.17;8.97;;;;;;;;;;7744026;23;20846;-52
2022/07/02 01:34:13;;;;;;;12.40;8.70;;;;;;;;;;7740274;23;20020;-53
2022/07/02 01:37:16;;;;;;;13.97;9.07;;;;;;;;;;7739154;23;20099;-50
2022/07/02 01:40:16;;;;;;;14.88;10.02;;;;;;;;;;7739021;23;20020;-49
2022/07/02 01:43:17;;;;;;;13.23;9.23;;;;;;;;;;7738760;23;20103;-49
2022/07/02 01:46:17;;;;;;;14.47;9.20;;;;;;;;;;7739725;23;20079;-47
2022/07/02 01:49:18;;;;;;;15.57;9.80;;;;;;;;;;7754302;23;20022;-48
2022/07/02 01:52:19;;;;;;;16.70;10.77;;;;;;;;;;7741713;23;20020;-55
2022/07/02 01:55:20;;;;;;;19.07;11.33;;;;;;;;;;7741841;23;20077;-51
2022/07/02 01:58:20;;;;;;;17.13;11.07;;;;;;;;;;7738527;23;20016;-48
2022/07/02 02:01:21;;;;;;;17.87;11.10;;;;;;;;;;7738171;23;20016;-48
2022/07/02 02:04:22;;;;;;;23.17;12.18;;;;;;;;;;7740732;23;20023;-49
2022/07/02 02:07:22;;;;;;;20.60;12.77;;;;;;;;;;7740000;23;20024;-49
2022/07/02 02:10:23;;;;;;;19.70;12.37;;;;;;;;;;7740119;23;20067;-48
2022/07/02 02:13:23;;;;;;;21.40;12.40;;;;;;;;;;7741103;23;20016;-47
2022/07/02 02:16:29;;;;;;;19.53;12.83;;;;;;;;;;7740796;23;20911;-50
2022/07/02 02:19:29;;;;;;;20.35;12.13;;;;;;;;;;7741038;23;20089;-48
2022/07/02 02:22:30;;;;;;;22.33;13.87;;;;;;;;;;7740464;23;20588;-48
2022/07/02 02:25:31;;;;;;;26.27;14.57;;;;;;;;;;7740972;23;20020;-49
2022/07/02 02:28:32;;;;;;;23.52;14.88;;;;;;;;;;7739560;23;20027;-47
2022/07/02 02:31:32;;;;;;;25.83;14.75;;;;;;;;;;7738293;23;20035;-51
2022/07/02 02:34:33;;;;;;;25.13;14.63;;;;;;;;;;7740218;23;20094;-48
2022/07/02 02:37:34;;;;;;;24.33;14.82;;;;;;;;;;7741652;23;20043;-49
2022/07/02 02:40:34;;;;;;;25.13;15.20;;;;;;;;;;7741528;23;20020;-48
2022/07/02 02:43:37;;;;;;;24.20;15.00;;;;;;;;;;7743526;23;20036;-49
2022/07/02 02:46:37;;;;;;;23.65;15.13;;;;;;;;;;7742272;23;20034;-54
2022/07/02 02:49:38;;;;;;;25.58;15.27;;;;;;;;;;7741744;23;20495;-48
2022/07/02 02:52:39;;;;;;;24.97;14.83;;;;;;;;;;7739269;23;20095;-49
2022/07/02 02:55:39;;;;;;;22.85;14.95;;;;;;;;;;7743025;23;20012;-50
2022/07/02 02:58:40;;;;;;;29.15;15.98;;;;;;;;;;7743494;23;20133;-47
2022/07/02 03:01:40;;;;;;;26.95;17.15;;;;;;;;;;7743148;23;20020;-48
2022/07/02 03:04:41;;;;;;;23.73;14.73;;;;;;;;;;7753704;23;20016;-48
2022/07/02 03:07:41;;;;;;;24.65;14.75;;;;;;;;;;7741458;23;20059;-52
2022/07/02 03:10:42;;;;;;;26.55;16.08;;;;;;;;;;7743775;23;20419;-47
2022/07/02 03:13:43;;;;;;;26.60;15.27;;;;;;;;;;7742591;23;20020;-48
2022/07/02 03:16:43;;;;;;;26.93;14.73;;;;;;;;;;7740376;23;20040;-48
2022/07/02 03:19:45;;;;;;;23.73;14.90;;;;;;;;;;7742513;23;20532;-48
2022/07/02 03:22:46;;;;;;;23.65;14.77;;;;;;;;;;7740083;23;20411;-48
2022/07/02 03:25:46;;;;;;;22.02;14.00;;;;;;;;;;7742399;23;20016;-48
2022/07/02 03:28:47;;;;;;;24.33;15.48;;;;;;;;;;7741529;23;20491;-48
2022/07/02 03:31:47;;;;;;;23.67;14.40;;;;;;;;;;7743377;23;20020;-50
2022/07/02 03:34:48;;;;;;;22.97;13.87;;;;;;;;;;7741343;23;20451;-50
2022/07/02 03:37:49;;;;;;;23.40;14.77;;;;;;;;;;7741451;23;20034;-47
2022/07/02 03:40:49;;;;;;;22.60;13.68;;;;;;;;;;7741909;23;20047;-49
2022/07/02 03:43:50;;;;;;;23.87;13.63;;;;;;;;;;7742611;23;20435;-49
2022/07/02 03:46:50;;;;;;;24.05;15.15;;;;;;;;;;7739972;23;20480;-48
2022/07/02 03:49:51;;;;;;;22.13;14.20;;;;;;;;;;7743513;23;20440;-50
2022/07/02 03:52:52;;;;;;;27.23;15.03;;;;;;;;;;7743212;23;20463;-54
2022/07/02 03:55:52;;;;;;;25.38;15.55;;;;;;;;;;7743246;23;20470;-47
2022/07/02 03:58:53;;;;;;;27.58;15.35;;;;;;;;;;7743505;23;20066;-48
2022/07/02 04:01:53;;;;;;;23.53;15.00;;;;;;;;;;7742275;23;20031;-48
2022/07/02 04:04:54;;;;;;;26.08;15.15;;;;;;;;;;7741747;23;20024;-50
2022/07/02 04:07:55;;;;;;;25.77;14.65;;;;;;;;;;7741454;23;20028;-47
2022/07/02 04:10:56;;;;;;;25.13;15.13;;;;;;;;;;7739017;23;20023;-48
2022/07/02 04:13:57;;;;;;;27.02;14.60;;;;;;;;;;7741227;23;20436;-47
2022/07/02 04:16:57;;;;;;;25.43;15.20;;;;;;;;;;7742545;23;20020;-48
2022/07/02 04:19:58;;;;;;;22.13;13.73;;;;;;;;;;7742978;23;20026;-47
2022/07/02 04:22:58;;;;;;;26.52;15.05;;;;;;;;;;7743983;23;20447;-51
2022/07/02 04:26:00;;;;;;;25.77;16.57;;;;;;;;;;7740651;23;20102;-51
2022/07/02 04:29:01;;;;;;;25.77;15.90;;;;;;;;;;7739753;23;21006;-50
2022/07/02 04:32:03;;;;;;;32.45;18.92;;;;;;;;;;7739967;23;20012;-53
2022/07/02 04:35:03;;;;;;;32.00;19.10;;;;;;;;;;7740712;23;20111;-48
2022/07/02 04:38:05;;;;;;;31.97;17.63;;;;;;;;;;7740875;23;20325;-51
2022/07/02 04:41:05;;;;;;;29.03;18.27;;;;;;;;;;7740896;23;20649;-49
2022/07/02 04:44:06;;;;;;;28.00;16.52;;;;;;;;;;7739575;23;20016;-47
2022/07/02 04:47:07;;;;;;;26.80;17.43;;;;;;;;;;7738973;23;20031;-55
2022/07/02 04:50:08;;;;;;;33.63;18.98;;;;;;;;;;7741610;23;20467;-48
2022/07/02 04:53:08;;;;;;;33.50;19.02;;;;;;;;;;7743268;23;20016;-49
2022/07/02 04:56:09;;;;;;;29.00;17.05;;;;;;;;;;7740242;23;20050;-48
2022/07/02 04:59:10;;;;;;;28.57;18.17;;;;;;;;;;7740962;23;20020;-47
2022/07/02 05:02:11;;;;;;;33.03;17.47;;;;;;;;;;7741914;23;20016;-48
2022/07/02 05:05:12;;;;;;;30.15;17.20;;;;;;;;;;7739561;23;20023;-53
2022/07/02 05:08:13;;;;;;;30.10;17.60;;;;;;;;;;7740831;23;20336;-48
2022/07/02 05:11:16;;;;;;;29.83;17.55;;;;;;;;;;7740680;23;20039;-48
2022/07/02 05:14:16;;;;;;;30.02;17.50;;;;;;;;;;7740441;23;20364;-49
2022/07/02 05:17:17;;;;;;;32.43;16.73;;;;;;;;;;7739016;23;20443;-52
2022/07/02 05:20:18;;;;;;;27.23;15.20;;;;;;;;;;7742325;23;20335;-47
2022/07/02 05:23:18;;;;;;;21.77;13.40;;;;;;;;;;7758087;23;20462;-49
2022/07/02 05:26:20;;;;;;;20.48;13.43;;;;;;;;;;7740165;23;20043;-48
2022/07/02 05:29:20;;;;;;;18.05;11.40;;;;;;;;;;7741737;23;20016;-51
2022/07/02 05:32:21;;;;;;;14.83;9.93;;;;;;;;;;7741686;23;20054;-49
2022/07/02 05:35:21;;;;;;;14.50;10.07;;;;;;;;;;7740076;23;20031;-48
2022/07/02 05:38:23;;;;;;;18.03;11.27;;;;;;;;;;7741952;23;20091;-48
2022/07/02 05:41:23;;;;;;;23.65;15.27;;;;;;;;;;7741758;23;20257;-49
2022/07/02 05:44:24;;;;;;;20.97;12.67;;;;;;;;;;7741172;23;20024;-49
2022/07/02 05:47:24;;;;;;;19.50;11.80;;;;;;;;;;7738582;23;20055;-50
2022/07/02 05:50:25;;;;;;;16.57;10.93;;;;;;;;;;7740956;23;20339;-49
2022/07/02 05:53:26;;;;;;;14.40;9.77;;;;;;;;;;7743536;23;20023;-48
2022/07/02 05:56:26;;;;;;;15.07;9.83;;;;;;;;;;7741317;23;20077;-48
2022/07/02 05:59:27;;;;;;;13.60;9.40;;;;;;;;;;7742152;23;20455;-51
2022/07/02 06:02:27;;;;;;;14.43;9.63;;;;;;;;;;7741972;23;20162;-51
2022/07/02 06:08:47;;;;;;;15.85;11.25;;;;;;;;;;7740920;23;20272;-49
2022/07/02 06:11:48;;;;;;;15.50;10.23;;;;;;;;;;7744827;23;20066;-52
2022/07/02 06:14:48;;;;;;;17.80;11.20;;;;;;;;;;7743654;23;20070;-52
2022/07/02 06:17:49;;;;;;;16.90;12.27;;;;;;;;;;7742727;23;20016;-48
2022/07/02 06:20:51;;;;;;;16.20;12.45;;;;;;;;;;7743497;23;20020;-50
2022/07/02 06:23:51;;;;;;;14.70;11.43;;;;;;;;;;7742447;23;20029;-49
2022/07/02 06:26:52;;;;;;;14.80;11.23;;;;;;;;;;7740761;23;20043;-51
2022/07/02 06:29:53;;;;;;;15.73;11.60;;;;;;;;;;7743548;23;20027;-52
2022/07/02 06:32:54;;;;;;;14.25;10.98;;;;;;;;;;7741037;23;20751;-50
2022/07/02 06:35:55;;;;;;;16.13;11.77;;;;;;;;;;7742641;23;20020;-48
2022/07/02 06:38:55;;;;;;;16.77;10.97;;;;;;;;;;7745396;23;20329;-51
2022/07/02 06:45:15;;;;;;;12.77;9.98;;;;;;;;;;7748502;23;20070;-48
2022/07/02 06:48:16;;;;;;;16.20;11.98;;;;;;;;;;7748278;23;20459;-50
2022/07/02 06:51:16;;;;;;;18.50;12.43;;;;;;;;;;7743738;23;20337;-49
2022/07/02 06:54:17;;;;;;;16.40;10.55;;;;;;;;;;7754950;23;20086;-48
2022/07/02 06:57:18;;;;;;;15.57;11.10;;;;;;;;;;7739749;23;20047;-49
2022/07/02 07:00:21;;;;;;;14.57;10.68;;;;;;;;;;7744373;23;20044;-49
2022/07/02 07:03:22;;;;;;;15.60;10.80;;;;;;;;;;7745552;23;20024;-51
2022/07/02 07:06:23;;;;;;;16.20;12.00;;;;;;;;;;7747009;23;20020;-51
2022/07/02 07:09:24;;;;;;;15.93;10.18;;;;;;;;;;7747522;23;20016;-50
2022/07/02 07:12:24;;;;;;;12.10;9.87;;;;;;;;;;7748444;23;20078;-48
2022/07/02 07:15:25;;;;;;;13.43;10.17;;;;;;;;;;7745228;23;20074;-50
2022/07/02 07:18:25;;;;;;;14.35;10.70;;;;;;;;;;7744451;23;20341;-53
2022/07/02 07:21:26;;;;;;;13.17;9.60;;;;;;;;;;7748121;23;20020;-48
2022/07/02 07:24:27;;;;;;;14.13;9.80;;;;;;;;;;7748282;23;20016;-51
2022/07/02 07:27:27;;;;;;;15.43;11.13;;;;;;;;;;7748072;23;20024;-48
2022/07/02 07:30:28;;;;;;;12.23;9.43;;;;;;;;;;7748556;23;20082;-48
2022/07/02 07:33:28;;;;;;;14.38;9.55;;;;;;;;;;7760671;23;20023;-51
2022/07/02 07:36:29;;;;;;;11.35;8.15;;;;;;;;;;7748485;23;20062;-48
2022/07/02 07:39:30;;;;;;;11.18;7.53;;;;;;;;;;7748645;23;20023;-50
2022/07/02 07:42:30;;;;;;;9.82;6.95;;;;;;;;;;7747126;23;20016;-50
2022/07/02 07:45:31;;;;;;;11.10;7.90;;;;;;;;;;7755988;23;20135;-48
2022/07/02 07:48:33;;;;;;;13.07;9.27;;;;;;;;;;7748169;23;20437;-50
2022/07/02 07:51:34;;;;;;;13.43;8.70;;;;;;;;;;7750290;23;20027;-49
2022/07/02 07:54:36;;;;;;;13.57;9.13;;;;;;;;;;7747483;23;20238;-64
2022/07/02 07:57:37;;;;;;;11.18;8.05;;;;;;;;;;7747570;23;20321;-48
2022/07/02 08:00:38;;;;;;;10.85;7.70;;;;;;;;;;7747986;23;20020;-51
2022/07/02 08:03:39;;;;;;;14.55;8.95;;;;;;;;;;7747056;23;20047;-55
2022/07/02 08:06:39;;;;;;;13.10;8.68;;;;;;;;;;7747989;23;20023;-48
2022/07/02 08:09:40;;;;;;;14.88;8.95;;;;;;;;;;7746980;23;20039;-47
2022/07/02 08:12:41;;;;;;;14.67;8.00;;;;;;;;;;7746617;23;20016;-48
2022/07/02 08:15:42;;;;;;;10.50;7.10;;;;;;;;;;7745390;23;20020;-52
2022/07/02 08:18:42;;;;;;;10.40;6.60;;;;;;;;;;7744656;23;20031;-49
2022/07/02 08:21:43;;;;;;;9.13;6.78;;;;;;;;;;7743714;23;20027;-49
2022/07/02 08:24:43;;;;;;;7.70;5.45;;;;;;;;;;7745349;23;20043;-48
2022/07/02 08:27:44;;;;;;;9.00;6.20;;;;;;;;;;7746089;23;20058;-50
2022/07/02 08:30:45;;;;;;;9.83;5.60;;;;;;;;;;7718420;23;20020;-48
2022/07/02 08:33:46;;;;;;;9.97;6.17;;;;;;;;;;7745883;23;20091;-49
2022/07/02 08:36:46;;;;;;;10.15;6.65;;;;;;;;;;7721304;23;20059;-50
2022/07/02 08:39:47;;;;;;;8.27;6.67;;;;;;;;;;7746414;23;20092;-52
2022/07/02 08:42:50;;;;;;;15.10;9.82;;;;;;;;;;7746832;23;20070;-52
2022/07/02 08:45:52;;;;;;;14.82;10.32;;;;;;;;;;7746450;23;20070;-48
2022/07/02 08:48:53;;;;;;;20.73;12.15;;;;;;;;;;7746061;23;20022;-49
2022/07/02 08:52:00;;;;;;;19.58;12.65;;;;;;;;;;7747832;23;20020;-49
2022/07/02 08:55:03;;;;;;;17.70;13.77;;;;;;;;;;7744162;23;20012;-49
2022/07/02 08:58:05;;;;;;;18.17;12.43;;;;;;;;;;7743285;23;20028;-52
2022/07/02 09:01:09;;;;;;;18.75;12.80;;;;;;;;;;7743426;23;20024;-47
2022/07/02 09:04:10;;;;;;;15.60;12.00;;;;;;;;;;7730239;23;20019;-49
2022/07/02 09:07:13;;;;;;;19.07;12.67;;;;;;;;;;7732070;23;20444;-58
2022/07/02 09:10:17;;;;;;;14.70;11.25;;;;;;;;;;7731199;23;20019;-50
2022/07/02 09:13:19;;;;;;;15.23;11.10;;;;;;;;;;7728452;23;20386;-49
2022/07/02 09:16:20;;;;;;;14.75;10.38;;;;;;;;;;7728983;23;20516;-49
2022/07/02 09:19:20;;;;;;;13.67;9.83;;;;;;;;;;7730076;23;20051;-47
2022/07/02 09:22:33;;;;;;;15.17;9.70;;;;;;;;;;7725752;23;20119;-47
2022/07/02 09:25:34;;;;;;;13.70;9.27;;;;;;;;;;7729367;23;20028;-48
2022/07/02 09:28:35;;;;;;;11.13;8.57;;;;;;;;;;7729943;23;21084;-52
2022/07/02 09:31:48;;;;;;;14.20;9.17;;;;;;;;;;7700770;23;20800;-53
2022/07/02 09:34:50;;;;;;;12.02;8.82;;;;;;;;;;7739834;23;20023;-57
2022/07/02 09:37:51;;;;;;;14.75;9.05;;;;;;;;;;7729027;23;20031;-49
2022/07/02 09:40:57;;;;;;;16.50;9.20;;;;;;;;;;7729508;23;20024;-48
2022/07/02 09:43:59;;;;;;;12.25;9.45;;;;;;;;;;7741137;23;20043;-46
2022/07/02 09:47:00;;;;;;;12.73;9.00;;;;;;;;;;7729754;23;20024;-48
2022/07/02 09:50:08;;;;;;;10.13;8.57;;;;;;;;;;7730972;23;20988;-47
2022/07/02 09:53:12;;;;;;;14.10;8.57;;;;;;;;;;7743534;23;20054;-48
2022/07/02 09:56:12;;;;;;;12.27;8.82;;;;;;;;;;7730729;23;20016;-51
2022/07/02 09:59:13;;;;;;;11.03;8.53;;;;;;;;;;7730761;23;20102;-48
2022/07/02 10:02:25;;;;;;;11.00;8.00;;;;;;;;;;7729524;23;20455;-48
2022/07/02 10:05:31;;;;;;;11.90;7.70;;;;;;;;;;7729474;23;20432;-49
2022/07/02 10:08:32;;;;;;;10.98;7.35;;;;;;;;;;7743655;23;20020;-49
2022/07/02 10:11:34;;;;;;;10.43;7.57;;;;;;;;;;7728021;23;20031;-52
2022/07/02 10:14:37;;;;;;;10.98;7.40;;;;;;;;;;7730653;23;20024;-47
2022/07/02 10:17:39;;;;;;;9.13;7.60;;;;;;;;;;7730460;23;20039;-47
2022/07/02 10:20:39;;;;;;;;;;;;;;;;;;7732107;23;20091;-47
2022/07/02 10:23:43;;;;;;;10.70;7.68;;;;;;;;;;7729026;23;19925;-49
2022/07/02 10:26:44;;;;;;;10.32;8.00;;;;;;;;;;7731260;23;20023;-51
2022/07/02 10:29:45;;;;;;;10.53;8.00;;;;;;;;;;7728006;23;20095;-54
2022/07/02 10:33:10;;;;;;;11.10;7.60;;;;;;;;;;7727997;23;20740;-52
2022/07/02 10:36:14;;;;;;;10.70;7.90;;;;;;;;;;7728030;23;20016;-48
2022/07/02 10:39:15;;;;;;;9.45;6.10;;;;;;;;;;7730793;23;20024;-51
2022/07/02 10:42:16;;;;;;;7.65;5.28;;;;;;;;;;7727992;23;20031;-47
2022/07/02 10:45:16;;;;;;;7.53;5.17;;;;;;;;;;7740636;23;20063;-54
2022/07/02 10:48:17;;;;;;;7.07;5.20;;;;;;;;;;7730415;23;20035;-47
2022/07/02 10:51:26;;;;;;;6.77;4.97;;;;;;;;;;7729734;23;20105;-46
2022/07/02 10:54:31;;;;;;;7.10;4.90;;;;;;;;;;7731775;23;20019;-48
2022/07/02 10:57:32;;;;;;;6.65;4.43;;;;;;;;;;7732577;23;20024;-48
2022/07/02 11:00:40;;;;;;;5.03;4.07;;;;;;;;;;7733055;23;20141;-48
2022/07/02 11:03:57;;;;;;;6.15;4.60;;;;;;;;;;7731206;23;20103;-46
2022/07/02 11:07:05;;;;;;;5.20;4.18;;;;;;;;;;7731563;23;20531;-48
2022/07/02 11:10:09;;;;;;;7.18;4.32;;;;;;;;;;7731162;23;20012;-47
2022/07/02 11:13:10;;;;;;;5.70;4.60;;;;;;;;;;7731260;23;20044;-48
2022/07/02 11:16:30;;;;;;;5.93;4.30;;;;;;;;;;7732750;23;20081;-49
2022/07/02 11:19:31;;;;;;;6.32;5.10;;;;;;;;;;7732979;23;20062;-47
2022/07/02 11:22:32;;;;;;;8.20;5.87;;;;;;;;;;7731131;23;20746;-52
2022/07/02 11:25:33;;;;;;;7.93;6.40;;;;;;;;;;7730363;23;20024;-48
2022/07/02 11:28:34;;;;;;;8.27;7.20;;;;;;;;;;7731940;23;20055;-48
2022/07/02 11:31:37;;;;;;;6.80;6.10;;;;;;;;;;7731763;23;20085;-48
2022/07/02 11:34:37;;;;;;;7.03;6.30;;;;;;;;;;7733142;23;20432;-52
2022/07/02 11:37:43;;;;;;;7.37;5.70;;;;;;;;;;7733059;23;20018;-48
2022/07/02 11:40:43;;;;;;;7.38;5.60;;;;;;;;;;7731438;23;20043;-48
2022/07/02 11:43:45;;;;;;;8.57;5.97;;;;;;;;;;7729792;23;20027;-48
2022/07/02 11:46:54;;;;;;;7.18;5.78;;;;;;;;;;7730154;23;20031;-47
2022/07/02 11:49:55;;;;;;;7.35;6.10;;;;;;;;;;7732916;23;20024;-52
2022/07/02 11:52:55;;;;;;;9.17;6.10;;;;;;;;;;7731254;23;20392;-50
2022/07/02 11:56:10;;;;;;;6.70;5.50;;;;;;;;;;7731283;23;21010;-48
2022/07/02 11:59:13;;;;;;;6.57;5.60;;;;;;;;;;7731290;23;20019;-48
2022/07/02 12:02:13;;;;;;;7.22;5.60;;;;;;;;;;7730535;23;20048;-48
2022/07/02 12:05:15;;;;;;;8.20;5.03;;;;;;;;;;7733298;23;20042;-48
2022/07/02 12:08:16;;;;;;;;;;;;;;;;;;7732226;23;20736;-47
2022/07/02 12:11:18;;;;;;;6.97;4.93;;;;;;;;;;7728806;23;19919;-51
2022/07/02 12:14:28;;;;;;;5.75;4.63;;;;;;;;;;7732236;23;20031;-48
2022/07/02 12:17:35;;;;;;;6.65;4.95;;;;;;;;;;7731755;23;20020;-51
2022/07/02 12:20:36;;;;;;;6.38;5.00;;;;;;;;;;7731710;23;20027;-49
2022/07/02 12:23:47;;;;;;;5.53;4.73;;;;;;;;;;7731455;23;20091;-50
2022/07/02 12:26:50;;;;;;;5.90;4.82;;;;;;;;;;7730630;23;20058;-57
2022/07/02 12:29:55;;;;;;;6.80;5.30;;;;;;;;;;7728160;23;20135;-67
2022/07/02 12:32:57;;;;;;;7.93;5.40;;;;;;;;;;7727214;23;20651;-47
2022/07/02 12:36:08;;;;;;;6.95;5.95;;;;;;;;;;7729653;23;20115;-50
2022/07/02 12:39:08;;;;;;;8.07;5.68;;;;;;;;;;7731237;23;20340;-49
2022/07/02 12:42:13;;;;;;;7.87;5.73;;;;;;;;;;7726583;23;20016;-48
2022/07/02 12:45:30;;;;;;;7.05;5.78;;;;;;;;;;7728648;23;20094;-49
2022/07/02 12:48:41;;;;;;;10.27;5.82;;;;;;;;;;7694158;23;20021;-54
2022/07/02 12:51:52;;;;;;;7.38;5.40;;;;;;;;;;7691307;23;20089;-49
2022/07/02 12:54:53;;;;;;;6.78;5.75;;;;;;;;;;7693515;23;20460;-54
2022/07/02 12:57:56;;;;;;;9.73;6.40;;;;;;;;;;7693289;23;20013;-48
2022/07/02 13:00:58;;;;;;;10.80;6.35;;;;;;;;;;7694572;23;20016;-54
2022/07/02 13:03:58;;;;;;;7.80;5.80;;;;;;;;;;7697367;23;20020;-54
2022/07/02 13:06:59;;;;;;;7.07;4.90;;;;;;;;;;7697263;23;20051;-58
2022/07/02 13:09:59;;;;;;;6.80;4.93;;;;;;;;;;7698297;23;20044;-49
2022/07/02 13:13:00;;;;;;;7.07;4.77;;;;;;;;;;7694839;23;20028;-51
2022/07/02 13:16:01;;;;;;;6.13;4.83;;;;;;;;;;7697874;23;20056;-55
2022/07/02 13:19:01;;;;;;;7.03;5.07;;;;;;;;;;7697605;23;20021;-48
2022/07/02 13:22:03;;;;;;;9.00;5.00;;;;;;;;;;7695892;23;20027;-56
2022/07/02 13:25:05;;;;;;;6.55;4.50;;;;;;;;;;7698021;23;20507;-59
2022/07/02 13:28:05;;;;;;;5.50;4.47;;;;;;;;;;7697002;23;20334;-56
2022/07/02 13:31:06;;;;;;;6.47;4.63;;;;;;;;;;7695222;23;20024;-55
2022/07/02 13:34:06;;;;;;;6.17;4.20;;;;;;;;;;7697751;23;20092;-52
2022/07/02 13:37:07;;;;;;;5.63;4.10;;;;;;;;;;7699183;23;20017;-48
2022/07/02 13:40:10;;;;;;;6.97;4.20;;;;;;;;;;7708547;23;20083;-51
2022/07/02 13:43:11;;;;;;;5.78;3.83;;;;;;;;;;7693275;23;20078;-47
2022/07/02 13:46:12;;;;;;;10.03;3.60;;;;;;;;;;7701128;23;20143;-46
2022/07/02 13:49:13;;;;;;;8.03;3.90;;;;;;;;;;7730153;23;20832;-48
2022/07/02 13:52:14;;;;;;;;;;;;;;;;;;7728296;23;20052;-49
2022/07/02 13:55:15;;;;;;;6.78;3.63;;;;;;;;;;7739580;23;20224;-54
2022/07/02 13:58:16;;;;;;;5.53;3.70;;;;;;;;;;7729735;23;20063;-49
2022/07/02 14:01:16;;;;;;;5.03;4.07;;;;;;;;;;7728522;23;20070;-50
2022/07/02 14:04:17;;;;;;;5.20;3.70;;;;;;;;;;7730395;23;20923;-49
2022/07/02 14:07:18;;;;;;;6.10;3.70;;;;;;;;;;7728025;23;20024;-48
2022/07/02 14:10:18;;;;;;;5.00;3.70;;;;;;;;;;7731622;23;20024;-56
2022/07/02 14:13:19;;;;;;;5.67;3.90;;;;;;;;;;7728446;23;20434;-55
2022/07/02 14:16:19;;;;;;;5.03;3.93;;;;;;;;;;7730496;23;20111;-48
2022/07/02 14:19:20;;;;;;;5.17;4.10;;;;;;;;;;7729527;23;20110;-51
2022/07/02 14:22:21;;;;;;;5.00;3.90;;;;;;;;;;7726660;23;20521;-47
2022/07/02 14:25:22;;;;;;;6.23;3.80;;;;;;;;;;7731238;23;20020;-55
2022/07/02 14:28:23;;;;;;;6.22;3.80;;;;;;;;;;7729993;23;20091;-49
2022/07/02 14:31:24;;;;;;;5.28;3.67;;;;;;;;;;7702812;23;20526;-49
2022/07/02 14:34:24;;;;;;;5.80;4.00;;;;;;;;;;7732714;23;20048;-51
2022/07/02 14:37:31;;;;;;;5.87;3.73;;;;;;;;;;7732213;23;20031;-48
2022/07/02 14:40:32;;;;;;;5.93;4.03;;;;;;;;;;7732513;23;20070;-47
2022/07/02 14:43:33;;;;;;;5.03;4.00;;;;;;;;;;7728642;23;20024;-48
2022/07/02 14:46:34;;;;;;;5.63;4.57;;;;;;;;;;7732598;23;20411;-49
2022/07/02 14:49:34;;;;;;;6.27;4.97;;;;;;;;;;7734626;23;20028;-47
2022/07/02 14:52:35;;;;;;;5.70;4.63;;;;;;;;;;7732527;23;20074;-47
2022/07/02 14:55:35;;;;;;;6.90;5.00;;;;;;;;;;7731840;23;20355;-51
2022/07/02 14:58:36;;;;;;;5.17;3.80;;;;;;;;;;7732252;23;20040;-46
2022/07/02 15:01:38;;;;;;;5.27;3.77;;;;;;;;;;7730596;23;20024;-49
2022/07/02 15:04:39;;;;;;;5.18;3.70;;;;;;;;;;7732418;23;20024;-48
2022/07/02 15:07:40;;;;;;;6.50;3.70;;;;;;;;;;7732319;23;20055;-47
2022/07/02 15:10:41;;;;;;;5.87;3.60;;;;;;;;;;7729258;23;20254;-54
2022/07/02 15:17:03;;;;;;;5.50;3.70;;;;;;;;;;7732770;23;20020;-51
2022/07/02 15:20:04;;;;;;;4.65;3.58;;;;;;;;;;7732020;23;20020;-51
2022/07/02 15:23:07;;;;;;;6.03;3.72;;;;;;;;;;7728878;23;20081;-52
2022/07/02 15:26:12;;;;;;;5.25;3.60;;;;;;;;;;7732820;23;20073;-49
2022/07/02 15:29:13;;;;;;;4.43;3.40;;;;;;;;;;7729930;23;20079;-48
2022/07/02 15:32:14;;;;;;;4.18;3.10;;;;;;;;;;7726675;23;20571;-47
2022/07/02 15:35:15;;;;;;;5.03;3.22;;;;;;;;;;7730810;23;20028;-50
2022/07/02 15:38:17;;;;;;;8.63;3.83;;;;;;;;;;7731427;23;20047;-46
2022/07/02 15:41:27;;;;;;;3.90;3.28;;;;;;;;;;7729244;23;20028;-48
2022/07/02 15:44:32;;;;;;;4.70;3.50;;;;;;;;;;7730776;23;20024;-49
2022/07/02 15:47:33;;;;;;;6.25;3.78;;;;;;;;;;7730348;23;20027;-47
2022/07/02 15:50:34;;;;;;;4.93;3.22;;;;;;;;;;7731339;23;20028;-47
2022/07/02 15:53:37;;;;;;;6.47;3.30;;;;;;;;;;7728928;23;20055;-49
2022/07/02 15:56:44;;;;;;;4.47;3.13;;;;;;;;;;7730623;23;20047;-50
2022/07/02 15:59:46;;;;;;;4.57;3.10;;;;;;;;;;7732573;23;20024;-50
2022/07/02 16:02:49;;;;;;;4.47;3.20;;;;;;;;;;7727699;23;20133;-52
2022/07/02 16:05:49;;;;;;;5.43;3.10;;;;;;;;;;7732631;23;20026;-48
2022/07/02 16:08:53;;;;;;;4.50;3.30;;;;;;;;;;7732396;23;20020;-52
2022/07/02 16:11:56;;;;;;;4.55;3.10;;;;;;;;;;7727859;23;20256;-49
2022/07/02 16:14:57;;;;;;;4.75;2.85;;;;;;;;;;7729393;23;20042;-55
2022/07/02 16:18:00;;;;;;;4.63;3.17;;;;;;;;;;7731616;23;20051;-49
2022/07/02 16:21:01;;;;;;;4.63;3.05;;;;;;;;;;7728629;23;20043;-56
2022/07/02 16:24:02;;;;;;;4.53;3.10;;;;;;;;;;7730489;23;20081;-49
2022/07/02 16:27:03;;;;;;;4.10;2.77;;;;;;;;;;7731882;23;20257;-47
2022/07/02 16:30:05;;;;;;;4.75;3.05;;;;;;;;;;7731279;23;20016;-50
2022/07/02 16:33:43;;;;;;;4.82;3.30;;;;;;;;;;7727221;23;20089;-47
2022/07/02 16:36:48;;;;;;;5.25;3.03;;;;;;;;;;7732381;23;20053;-50
2022/07/02 16:39:56;;;;;;;4.18;3.15;;;;;;;;;;7732063;23;20024;-48
2022/07/02 16:42:58;;;;;;;5.28;3.08;;;;;;;;;;7728354;23;20454;-46
2022/07/02 16:46:06;;;;;;;4.20;2.92;;;;;;;;;;7729501;23;20052;-52
2022/07/02 16:49:07;;;;;;;5.07;2.78;;;;;;;;;;7731047;23;20131;-47
2022/07/02 16:52:08;;;;;;;;;;;;;;;;;;7726370;23;20020;-51
2022/07/02 16:55:10;;;;;;;5.55;2.20;;;;;;;;;;7728254;23;20586;-50
2022/07/02 16:58:11;;;;;;;3.75;2.33;;;;;;;;;;7729539;23;20047;-52
2022/07/02 17:01:12;;;;;;;4.33;2.37;;;;;;;;;;7729172;23;20463;-49
2022/07/02 17:04:13;;;;;;;8.15;2.58;;;;;;;;;;7730349;23;20024;-53
2022/07/02 17:07:14;;;;;;;5.00;2.60;;;;;;;;;;7729381;23;20521;-48
2022/07/02 17:13:35;;;;;;;5.25;2.90;;;;;;;;;;7728919;23;20020;-47
2022/07/02 17:16:36;;;;;;;4.17;3.00;;;;;;;;;;7731321;23;20024;-48
2022/07/02 17:19:37;;;;;;;7.22;2.88;;;;;;;;;;7729076;23;20094;-48
2022/07/02 17:22:40;;;;;;;3.77;2.90;;;;;;;;;;7729042;23;20070;-52
2022/07/02 17:25:41;;;;;;;5.88;3.70;;;;;;;;;;7732044;23;20023;-47
2022/07/02 17:28:41;;;;;;;6.35;4.18;;;;;;;;;;7730364;23;20020;-48
2022/07/02 17:31:42;;;;;;;5.37;2.97;;;;;;;;;;7728944;23;20088;-53
2022/07/02 17:34:44;;;;;;;4.47;3.50;;;;;;;;;;7731115;23;20019;-48
2022/07/02 17:37:45;;;;;;;5.97;3.20;;;;;;;;;;7729161;23;20498;-47
2022/07/02 17:40:46;;;;;;;4.07;3.10;;;;;;;;;;7729000;23;20094;-50
2022/07/02 17:43:46;;;;;;;6.30;3.67;;;;;;;;;;7728617;23;20036;-47
2022/07/02 17:46:47;;;;;;;5.23;3.80;;;;;;;;;;7730376;23;20048;-48
2022/07/02 17:49:48;;;;;;;7.40;4.97;;;;;;;;;;7730357;23;20020;-47
2022/07/02 17:52:48;;;;;;;9.80;6.13;;;;;;;;;;7730094;23;20709;-49
2022/07/02 17:55:49;;;;;;;12.03;6.30;;;;;;;;;;7735491;23;20095;-49
2022/07/02 17:58:50;;;;;;;10.07;6.60;;;;;;;;;;7737097;23;20131;-49
2022/07/02 18:01:50;;;;;;;10.80;7.30;;;;;;;;;;7734797;23;20436;-51
2022/07/02 18:04:51;;;;;;;8.30;6.17;;;;;;;;;;7734663;23;20043;-59
2022/07/02 18:07:52;;;;;;;9.30;6.90;;;;;;;;;;7737812;23;20922;-48
2022/07/02 18:10:53;;;;;;;5.93;4.30;;;;;;;;;;7736468;23;20047;-56
2022/07/02 18:13:53;;;;;;;6.40;5.17;;;;;;;;;;7735938;23;20103;-48